Time;durP1;ratioP1;P1;durP2;ratioP2;P2;SDS_P1;SDS_P2;PMS_P1;PMS_P2;Temp;Humidity;BMP_temperature;BMP_pressure;BME280_temperature;BME280_humidity;BME280_pressure;Samples;Min_cycle;Max_cycle;Signal;HPM_P1;HPM_P2
2023/10/08 00:01:19;;;;;;;7.37;3.90;;;19.40;99.90;;;;;;5105092;28;20526;-78
2023/10/08 00:03:50;;;;;;;7.93;3.90;;;19.40;99.90;;;;;;5105519;28;20467;-78
2023/10/08 00:06:19;;;;;;;5.50;3.80;;;19.40;99.90;;;;;;5106416;28;20474;-78
2023/10/08 00:08:45;;;;;;;8.93;4.33;;;19.40;99.90;;;;;;5105410;28;20416;-78
2023/10/08 00:11:11;;;;;;;6.00;4.30;;;19.40;99.90;;;;;;5106218;28;20779;-78
2023/10/08 00:13:40;;;;;;;5.47;4.03;;;19.40;99.90;;;;;;5105171;28;20764;-78
2023/10/08 00:16:10;;;;;;;7.83;5.10;;;19.50;99.90;;;;;;5104540;28;20857;-78
2023/10/08 00:18:37;;;;;;;5.47;4.47;;;19.50;99.90;;;;;;5106508;28;20422;-78
2023/10/08 00:21:16;;;;;;;6.70;4.00;;;19.60;99.90;;;;;;5104599;28;20499;-78
2023/10/08 00:23:43;;;;;;;6.80;4.60;;;19.60;99.90;;;;;;5106778;28;20419;-78
2023/10/08 00:26:09;;;;;;;6.40;5.30;;;19.60;99.90;;;;;;5105786;28;20801;-78
2023/10/08 00:28:35;;;;;;;5.00;4.20;;;19.60;99.90;;;;;;5105113;28;20471;-77
2023/10/08 00:31:06;;;;;;;8.33;4.10;;;19.70;99.90;;;;;;5104463;28;20207;-78
2023/10/08 00:33:32;;;;;;;7.87;5.03;;;19.70;99.90;;;;;;5105168;28;20772;-78
2023/10/08 00:35:57;;;;;;;5.47;4.40;;;19.70;99.90;;;;;;5106005;28;20424;-78
2023/10/08 00:38:25;;;;;;;5.93;4.70;;;19.70;99.90;;;;;;5106184;28;20489;-78
2023/10/08 00:40:55;;;;;;;6.23;4.87;;;19.70;99.90;;;;;;5104311;28;20286;-78
2023/10/08 00:43:34;;;;;;;4.77;3.93;;;19.80;99.90;;;;;;5106612;28;20516;-78
2023/10/08 00:46:01;;;;;;;8.53;5.03;;;19.80;99.90;;;;;;5105371;28;20482;-78
2023/10/08 00:48:28;;;;;;;8.00;4.80;;;19.80;99.90;;;;;;5106268;28;20507;-78
2023/10/08 00:51:08;;;;;;;5.27;4.47;;;19.80;99.90;;;;;;5103627;28;20713;-78
2023/10/08 00:53:39;;;;;;;5.37;4.20;;;19.80;99.90;;;;;;5108029;28;20523;-78
2023/10/08 00:56:13;;;;;;;6.90;5.00;;;19.80;99.90;;;;;;5108615;28;20443;-78
2023/10/08 00:58:41;;;;;;;8.13;5.60;;;19.80;99.90;;;;;;5108811;28;20418;-78
2023/10/08 01:01:10;;;;;;;5.40;4.70;;;19.80;99.90;;;;;;5107976;28;20849;-78
2023/10/08 01:03:38;;;;;;;4.80;4.07;;;19.80;99.90;;;;;;5109845;28;20441;-78
2023/10/08 01:06:09;;;;;;;5.57;4.93;;;19.90;99.90;;;;;;5107992;28;20486;-78
2023/10/08 01:08:45;;;;;;;7.13;5.57;;;19.90;99.90;;;;;;5109634;28;20927;-78
2023/10/08 01:11:21;;;;;;;5.37;4.07;;;19.90;99.90;;;;;;5108236;28;21000;-78
2023/10/08 01:13:47;;;;;;;7.33;5.23;;;19.90;99.90;;;;;;5110066;28;20472;-78
2023/10/08 01:16:14;;;;;;;9.33;4.70;;;19.90;99.90;;;;;;5109390;28;20594;-78
2023/10/08 01:18:46;;;;;;;21.37;5.43;;;20.00;99.90;;;;;;5108169;28;20171;-78
2023/10/08 01:21:29;;;;;;;6.53;4.10;;;19.90;99.90;;;;;;5109317;28;20435;-78
2023/10/08 01:23:55;;;;;;;5.13;4.30;;;19.90;99.90;;;;;;5109946;27;20439;-78
2023/10/08 01:26:22;;;;;;;6.73;4.23;;;19.90;99.90;;;;;;5109291;28;20471;-77
2023/10/08 01:28:48;;;;;;;5.13;4.63;;;20.00;99.90;;;;;;5109507;28;20175;-78
2023/10/08 01:31:15;;;;;;;6.50;4.60;;;19.90;99.90;;;;;;5109179;28;20940;-78
2023/10/08 01:33:49;;;;;;;7.90;5.23;;;19.90;99.90;;;;;;5109706;28;20167;-78
2023/10/08 01:36:15;;;;;;;7.03;5.80;;;19.90;99.90;;;;;;5109090;28;20512;-78
2023/10/08 01:38:41;;;;;;;8.60;4.80;;;20.00;99.90;;;;;;5107895;28;20495;-78
2023/10/08 01:41:18;;;;;;;8.10;4.67;;;19.90;99.90;;;;;;5108785;28;20423;-78
2023/10/08 01:43:48;;;;;;;6.40;4.40;;;19.90;99.90;;;;;;5109121;28;20449;-78
2023/10/08 01:46:15;;;;;;;5.40;4.13;;;19.90;99.90;;;;;;5106948;28;20464;-78
2023/10/08 01:48:44;;;;;;;5.37;4.50;;;19.90;99.90;;;;;;5107702;28;20780;-78
2023/10/08 01:51:11;;;;;;;6.47;5.10;;;19.90;99.90;;;;;;5106411;28;20466;-78
2023/10/08 01:53:40;;;;;;;5.83;4.87;;;19.90;99.90;;;;;;5108926;28;21114;-78
2023/10/08 01:56:06;;;;;;;7.50;4.33;;;19.90;99.90;;;;;;5108462;28;20476;-78
2023/10/08 01:58:35;;;;;;;7.47;5.70;;;19.90;99.90;;;;;;5109282;27;20420;-78
2023/10/08 02:01:01;;;;;;;7.10;4.40;;;19.90;99.90;;;;;;5106825;28;20853;-78
2023/10/08 02:03:29;;;;;;;5.40;4.20;;;19.80;99.90;;;;;;5106552;28;20423;-78
2023/10/08 02:05:58;;;;;;;6.70;4.30;;;19.90;99.90;;;;;;5106591;28;20215;-78
2023/10/08 02:08:26;;;;;;;5.03;4.03;;;19.80;99.90;;;;;;5109090;28;20729;-78
2023/10/08 02:10:52;;;;;;;5.77;4.23;;;19.80;99.90;;;;;;5106985;28;21074;-78
2023/10/08 02:13:18;;;;;;;6.43;5.17;;;19.80;99.90;;;;;;5108623;28;20432;-78
2023/10/08 02:15:49;;;;;;;5.93;4.23;;;19.80;99.90;;;;;;5108356;28;20427;-78
2023/10/08 02:18:15;;;;;;;5.03;4.30;;;19.80;99.90;;;;;;5108657;28;20168;-77
2023/10/08 02:20:41;;;;;;;6.73;4.63;;;19.80;99.90;;;;;;5108110;28;20438;-78
2023/10/08 02:23:07;;;;;;;7.20;4.87;;;19.80;99.90;;;;;;5107314;28;20180;-78
2023/10/08 02:25:35;;;;;;;8.20;5.03;;;19.80;99.90;;;;;;5108415;28;20838;-78
2023/10/08 02:28:03;;;;;;;8.03;4.40;;;19.80;99.90;;;;;;5108418;28;20175;-78
2023/10/08 02:30:28;;;;;;;8.13;5.00;;;19.80;99.90;;;;;;5107952;28;20515;-78
2023/10/08 02:32:54;;;;;;;7.50;5.90;;;19.80;99.90;;;;;;5108558;28;20506;-78
2023/10/08 02:35:19;;;;;;;6.47;4.20;;;19.80;99.90;;;;;;5106598;28;20199;-78
2023/10/08 02:37:45;;;;;;;12.80;4.67;;;19.80;99.90;;;;;;5106819;28;20648;-78
2023/10/08 02:40:33;;;;;;;7.90;4.57;;;19.80;99.90;;;;;;5107786;28;20563;-78
2023/10/08 02:43:00;;;;;;;8.23;4.90;;;19.80;99.90;;;;;;5107102;28;20283;-78
2023/10/08 02:45:27;;;;;;;7.87;4.97;;;19.90;99.90;;;;;;5106293;28;20522;-78
2023/10/08 02:47:53;;;;;;;10.03;5.20;;;19.90;99.90;;;;;;5107804;28;20991;-78
2023/10/08 02:50:22;;;;;;;6.00;4.67;;;19.90;99.90;;;;;;5107504;28;20443;-78
2023/10/08 02:52:50;;;;;;;8.10;4.80;;;19.90;99.90;;;;;;5108290;28;20396;-78
2023/10/08 02:55:34;;;;;;;6.27;4.37;;;20.00;99.90;;;;;;5105211;28;20827;-78
2023/10/08 02:58:03;;;;;;;7.30;4.40;;;20.00;99.90;;;;;;5107710;28;20972;-78
2023/10/08 03:00:29;;;;;;;7.13;4.60;;;20.00;99.90;;;;;;5106184;28;20439;-78
2023/10/08 03:02:57;;;;;;;4.90;4.40;;;20.00;99.90;;;;;;5107596;28;20416;-78
2023/10/08 03:05:29;;;;;;;5.43;4.07;;;20.10;99.90;;;;;;5107373;28;20456;-78
2023/10/08 03:07:55;;;;;;;5.97;4.30;;;20.00;99.90;;;;;;5106458;28;20436;-78
2023/10/08 03:10:22;;;;;;;5.90;4.47;;;20.00;99.90;;;;;;5107125;28;20672;-78
2023/10/08 03:12:48;;;;;;;6.00;4.77;;;20.00;99.90;;;;;;5107980;28;20400;-78
2023/10/08 03:15:37;;;;;;;7.30;4.50;;;20.00;99.90;;;;;;5105589;28;20439;-78
2023/10/08 03:18:14;;;;;;;6.37;4.77;;;20.00;99.90;;;;;;5106244;28;20921;-78
2023/10/08 03:20:45;;;;;;;6.33;4.00;;;20.00;99.90;;;;;;5107126;28;20818;-78
2023/10/08 03:23:13;;;;;;;7.97;4.80;;;20.00;99.90;;;;;;5107260;28;20752;-77
2023/10/08 03:25:41;;;;;;;7.67;4.93;;;20.00;99.90;;;;;;5105402;28;21000;-78
2023/10/08 03:28:09;;;;;;;5.50;3.90;;;20.00;99.90;;;;;;5106999;28;20440;-78
2023/10/08 03:30:47;;;;;;;6.50;4.07;;;20.10;99.90;;;;;;5105617;28;20451;-78
2023/10/08 03:33:21;;;;;;;6.23;4.30;;;20.10;99.90;;;;;;5105974;28;20430;-78
2023/10/08 03:35:49;;;;;;;8.70;4.90;;;20.10;99.90;;;;;;5107016;28;20732;-78
2023/10/08 03:38:28;;;;;;;6.40;3.97;;;20.10;99.90;;;;;;5105615;28;20541;-78
2023/10/08 03:40:58;;;;;;;5.27;3.67;;;20.10;99.90;;;;;;5106366;28;20439;-78
2023/10/08 03:43:33;;;;;;;6.40;4.13;;;20.10;99.90;;;;;;5106744;28;20396;-77
2023/10/08 03:45:59;;;;;;;5.37;4.50;;;20.20;99.90;;;;;;5106269;28;20470;-78
2023/10/08 03:48:25;;;;;;;7.00;4.20;;;20.20;99.90;;;;;;5105566;28;20405;-78
2023/10/08 03:51:06;;;;;;;6.87;4.13;;;20.20;99.90;;;;;;5104756;28;20484;-78
2023/10/08 03:53:42;;;;;;;5.03;3.90;;;20.20;99.90;;;;;;5105254;28;20428;-78
2023/10/08 03:56:08;;;;;;;7.80;4.40;;;20.20;99.90;;;;;;5106115;28;20492;-80
2023/10/08 03:58:40;;;;;;;5.23;3.80;;;20.30;99.90;;;;;;5105383;28;20419;-78
2023/10/08 04:01:10;;;;;;;5.03;3.90;;;20.30;99.90;;;;;;5106434;28;20700;-78
2023/10/08 04:06:22;;;;;;;5.53;4.10;;;20.30;99.90;;;;;;5106288;28;20483;-77
2023/10/08 04:11:35;;;;;;;6.63;3.80;;;20.30;99.90;;;;;;5106079;28;20561;-78
2023/10/08 04:14:04;;;;;;;6.17;4.10;;;20.30;99.90;;;;;;5105005;28;20419;-77
2023/10/08 04:16:36;;;;;;;4.63;4.00;;;20.40;99.90;;;;;;5105134;28;20420;-78
2023/10/08 04:19:04;;;;;;;7.50;3.90;;;20.40;99.90;;;;;;5106528;28;20388;-78
2023/10/08 04:21:29;;;;;;;7.47;3.60;;;20.40;99.90;;;;;;5104868;28;20941;-78
2023/10/08 04:23:57;;;;;;;6.10;4.10;;;20.40;99.90;;;;;;5106356;28;20435;-77
2023/10/08 04:26:24;;;;;;;7.13;3.93;;;20.40;99.90;;;;;;5106129;28;20214;-78
2023/10/08 04:28:58;;;;;;;6.37;3.87;;;20.40;99.90;;;;;;5109135;28;20749;-79
2023/10/08 04:31:28;;;;;;;6.30;3.90;;;20.40;99.90;;;;;;5108985;28;20458;-78
2023/10/08 04:33:54;;;;;;;5.60;3.73;;;20.40;99.90;;;;;;5109440;28;20415;-78
2023/10/08 04:36:21;;;;;;;6.10;4.37;;;20.40;99.90;;;;;;5110127;28;20801;-78
2023/10/08 04:38:54;;;;;;;9.47;4.07;;;20.40;99.90;;;;;;5108989;28;21006;-78
2023/10/08 04:41:27;;;;;;;5.50;4.03;;;20.40;99.90;;;;;;5110048;28;20806;-79
2023/10/08 04:43:55;;;;;;;6.33;4.20;;;20.40;99.90;;;;;;5110070;28;20407;-78
2023/10/08 04:49:08;;;;;;;7.30;4.03;;;20.40;99.90;;;;;;5110085;28;20404;-78
2023/10/08 04:51:43;;;;;;;6.40;3.70;;;20.40;99.90;;;;;;5109774;28;20408;-78
2023/10/08 04:54:18;;;;;;;4.93;4.00;;;20.40;99.90;;;;;;5109339;28;20399;-78
2023/10/08 04:56:44;;;;;;;5.83;4.87;;;20.40;99.90;;;;;;5110175;28;20968;-78
2023/10/08 04:59:13;;;;;;;6.30;4.33;;;20.40;99.90;;;;;;5108393;28;20729;-78
2023/10/08 05:01:47;;;;;;;62.40;29.70;;;20.40;99.90;;;;;;5108845;28;20651;-79
2023/10/08 05:04:23;;;;;;;28.90;14.83;;;20.40;99.90;;;;;;5109537;28;20411;-79
2023/10/08 05:17:03;;;;;;;6.53;4.00;;;20.30;99.90;;;;;;5109906;28;20411;-78
2023/10/08 05:30:16;;;;;;;7.20;3.87;;;20.30;99.90;;;;;;5108936;27;20427;-78
2023/10/08 05:38:34;;;;;;;5.87;4.23;;;20.20;99.90;;;;;;5108582;28;20454;-78
2023/10/08 05:51:56;;;;;;;9.27;5.37;;;20.20;99.90;;;;;;5108789;28;20577;-77
2023/10/08 05:59:53;;;;;;;5.23;4.13;;;20.20;99.90;;;;;;5108826;28;20678;-78
2023/10/08 06:05:09;;;;;;;5.10;4.50;;;20.30;99.90;;;;;;5108988;28;20424;-78
2023/10/08 06:07:47;;;;;;;6.67;4.00;;;20.30;99.90;;;;;;5108594;28;20405;-78
2023/10/08 06:13:29;;;;;;;5.70;4.07;;;20.40;99.90;;;;;;5109029;28;20415;-78
2023/10/08 06:18:28;;;;;;;4.40;3.40;;;20.50;99.90;;;;;;5108649;28;20496;-78
2023/10/08 06:20:54;;;;;;;4.70;3.70;;;20.60;99.90;;;;;;5108297;28;20936;-78
2023/10/08 06:23:22;;;;;;;4.00;3.20;;;20.60;99.90;;;;;;5108392;28;20434;-78
2023/10/08 06:26:05;;;;;;;4.93;3.40;;;20.70;99.90;;;;;;5106824;28;20472;-78
2023/10/08 06:28:34;;;;;;;6.97;4.20;;;20.70;99.90;;;;;;5107389;28;20425;-78
2023/10/08 06:31:02;;;;;;;5.10;3.77;;;20.80;99.90;;;;;;5107868;28;20460;-78
2023/10/08 06:33:33;;;;;;;4.47;3.60;;;20.80;99.90;;;;;;5107236;28;20423;-78
2023/10/08 06:36:02;;;;;;;6.97;3.80;;;20.80;99.90;;;;;;5106259;28;20506;-78
2023/10/08 06:38:32;;;;;;;6.77;3.80;;;20.90;99.90;;;;;;5108066;28;21056;-78
2023/10/08 06:41:09;;;;;;;6.30;4.00;;;20.90;99.90;;;;;;5107847;28;20432;-78
2023/10/08 06:43:36;;;;;;;6.40;4.10;;;21.00;99.90;;;;;;5105014;28;20513;-78
2023/10/08 06:46:03;;;;;;;6.40;3.70;;;21.10;99.90;;;;;;5106936;28;20480;-78
2023/10/08 06:48:29;;;;;;;6.40;3.37;;;21.10;99.90;;;;;;5107371;28;20396;-78
2023/10/08 06:50:58;;;;;;;7.90;4.60;;;21.20;99.90;;;;;;5106475;28;20893;-78
2023/10/08 06:53:25;;;;;;;6.40;3.83;;;21.20;99.90;;;;;;5107891;28;20187;-78
2023/10/08 06:55:56;;;;;;;4.73;3.73;;;21.20;99.90;;;;;;5107114;28;20672;-78
2023/10/08 06:58:24;;;;;;;4.80;4.00;;;21.30;99.90;;;;;;5106196;28;20420;-78
2023/10/08 07:00:49;;;;;;;5.53;2.93;;;21.40;99.90;;;;;;5107903;28;20492;-78
2023/10/08 07:03:17;;;;;;;5.77;4.10;;;21.50;99.90;;;;;;5107691;28;20408;-78
2023/10/08 07:06:02;;;;;;;4.90;3.17;;;21.60;99.90;;;;;;5106485;28;20267;-78
2023/10/08 07:08:32;;;;;;;4.53;3.67;;;21.70;99.90;;;;;;5104628;28;20416;-78
2023/10/08 07:11:01;;;;;;;7.03;3.30;;;21.80;99.90;;;;;;5103709;28;20863;-78
2023/10/08 07:13:29;;;;;;;5.43;3.30;;;21.90;99.90;;;;;;5106180;28;20835;-78
2023/10/08 07:15:55;;;;;;;6.07;2.90;;;22.00;99.90;;;;;;5105457;28;20797;-78
2023/10/08 07:18:31;;;;;;;6.70;3.90;;;22.10;99.90;;;;;;5104476;28;20944;-78
2023/10/08 07:21:00;;;;;;;7.13;3.47;;;22.10;99.90;;;;;;5106170;28;20455;-79
2023/10/08 07:23:33;;;;;;;4.63;3.60;;;22.20;99.90;;;;;;5105645;28;20420;-79
2023/10/08 07:26:13;;;;;;;8.57;4.00;;;22.30;99.90;;;;;;5105997;28;20474;-79
2023/10/08 07:28:40;;;;;;;6.20;3.60;;;22.40;99.90;;;;;;5104561;28;20562;-79
2023/10/08 07:31:16;;;;;;;4.63;3.57;;;22.60;99.90;;;;;;5105149;28;20968;-79
2023/10/08 07:33:43;;;;;;;5.97;3.33;;;22.70;99.60;;;;;;5105745;27;20419;-79
2023/10/08 07:36:14;;;;;;;3.37;3.07;;;22.80;99.60;;;;;;5105106;28;20429;-79
2023/10/08 07:38:43;;;;;;;5.07;3.33;;;22.90;99.60;;;;;;5105399;28;20828;-79
2023/10/08 07:41:14;;;;;;;9.13;3.43;;;23.00;99.50;;;;;;5105201;28;20591;-79
2023/10/08 07:43:42;;;;;;;4.67;3.27;;;23.20;99.70;;;;;;5105430;28;20390;-79
2023/10/08 07:46:09;;;;;;;6.43;4.03;;;23.30;99.70;;;;;;5104546;28;20476;-79
2023/10/08 07:48:35;;;;;;;7.70;3.50;;;23.50;99.40;;;;;;5105222;28;20411;-79
2023/10/08 07:51:01;;;;;;;3.20;2.57;;;23.70;98.50;;;;;;5102924;28;20454;-79
2023/10/08 07:53:37;;;;;;;5.40;3.57;;;24.00;98.30;;;;;;5105546;28;20479;-79
2023/10/08 07:56:06;;;;;;;3.80;2.40;;;24.20;98.20;;;;;;5103778;28;20466;-79
2023/10/08 07:58:35;;;;;;;7.00;3.23;;;24.70;97.50;;;;;;5105408;28;20472;-80
2023/10/08 08:01:06;;;;;;;11.40;4.03;;;25.10;96.90;;;;;;5104007;28;20448;-79
2023/10/08 08:03:36;;;;;;;4.07;3.03;;;25.70;96.40;;;;;;5106562;28;20400;-79
2023/10/08 08:06:10;;;;;;;5.67;3.07;;;26.20;96.30;;;;;;5105782;28;20521;-79
2023/10/08 08:08:37;;;;;;;9.10;3.23;;;26.80;95.30;;;;;;5106809;28;20385;-79
2023/10/08 08:11:06;;;;;;;4.97;2.40;;;27.50;94.50;;;;;;5106015;28;21004;-79
2023/10/08 08:13:34;;;;;;;9.10;3.10;;;27.80;93.10;;;;;;5105134;28;20411;-79
2023/10/08 08:16:09;;;;;;;6.37;2.90;;;27.80;92.70;;;;;;5105982;28;20795;-79
2023/10/08 08:18:37;;;;;;;8.33;2.50;;;27.60;92.30;;;;;;5104261;28;20426;-79
2023/10/08 08:21:03;;;;;;;5.27;2.87;;;27.40;91.50;;;;;;5094385;28;20453;-79
2023/10/08 08:23:31;;;;;;;5.83;2.97;;;27.10;91.80;;;;;;5084136;28;20437;-79
2023/10/08 08:26:11;;;;;;;5.53;2.60;;;26.90;91.80;;;;;;5082714;28;20457;-79
2023/10/08 08:28:37;;;;;;;6.27;2.70;;;26.60;92.20;;;;;;5083075;28;21117;-79
2023/10/08 08:31:18;;;;;;;6.20;2.37;;;26.30;92.50;;;;;;5083721;28;20623;-79
2023/10/08 08:33:52;;;;;;;4.67;2.70;;;26.10;92.40;;;;;;5082994;28;20840;-79
2023/10/08 08:36:22;;;;;;;16.50;13.10;;;25.90;92.70;;;;;;5082407;28;20456;-79
2023/10/08 08:38:48;;;;;;;16.93;11.13;;;25.70;92.70;;;;;;5082961;28;20477;-79
2023/10/08 08:41:17;;;;;;;6.03;3.87;;;25.50;92.50;;;;;;5084086;28;20432;-79
2023/10/08 08:43:48;;;;;;;6.97;3.27;;;25.40;92.70;;;;;;5083365;28;20557;-79
2023/10/08 08:46:13;;;;;;;7.83;3.00;;;25.20;92.70;;;;;;5084021;28;20469;-79
2023/10/08 08:48:41;;;;;;;8.83;5.87;;;25.10;93.00;;;;;;5084433;28;20453;-79
2023/10/08 08:51:07;;;;;;;6.13;4.00;;;25.00;93.40;;;;;;5083985;28;20200;-79
2023/10/08 08:53:36;;;;;;;6.67;3.07;;;25.00;93.40;;;;;;5084142;28;20419;-79
2023/10/08 08:56:06;;;;;;;5.23;3.17;;;24.90;93.30;;;;;;5085710;28;20440;-79
2023/10/08 08:58:34;;;;;;;10.80;3.10;;;24.80;93.50;;;;;;5085884;28;20438;-79
2023/10/08 09:01:03;;;;;;;5.37;3.77;;;24.70;93.60;;;;;;5083564;28;20551;-79
2023/10/08 09:03:32;;;;;;;9.27;4.30;;;24.70;93.80;;;;;;5085623;28;20409;-79
2023/10/08 09:05:59;;;;;;;8.43;2.87;;;24.60;93.80;;;;;;5085062;28;20620;-79
2023/10/08 09:08:31;;;;;;;5.90;2.77;;;24.60;94.00;;;;;;5085958;28;20408;-79
2023/10/08 09:11:04;;;;;;;7.00;2.90;;;24.50;94.10;;;;;;5083812;28;20925;-79
2023/10/08 09:13:31;;;;;;;5.60;2.27;;;24.40;94.20;;;;;;5087043;28;20656;-79
2023/10/08 09:16:06;;;;;;;6.93;3.00;;;24.40;94.50;;;;;;5087354;28;20448;-79
2023/10/08 09:18:32;;;;;;;9.57;3.27;;;24.40;94.50;;;;;;5089797;28;20900;-79
2023/10/08 09:21:10;;;;;;;3.50;2.10;;;24.40;94.60;;;;;;5088667;28;20461;-79
2023/10/08 09:23:47;;;;;;;3.30;2.07;;;24.40;94.40;;;;;;5088010;28;20580;-79
2023/10/08 09:26:14;;;;;;;4.57;3.60;;;24.50;94.70;;;;;;5087745;28;20472;-79
2023/10/08 09:28:46;;;;;;;7.13;3.00;;;24.60;94.80;;;;;;5089374;28;20924;-79
2023/10/08 09:31:13;;;;;;;3.97;2.50;;;24.60;94.70;;;;;;5088554;28;20436;-79
2023/10/08 09:33:40;;;;;;;6.33;2.60;;;24.70;94.50;;;;;;5088967;28;20424;-79
2023/10/08 09:36:10;;;;;;;2.47;2.13;;;24.70;94.60;;;;;;5087045;28;20444;-79
2023/10/08 09:38:37;;;;;;;3.57;2.37;;;24.90;94.70;;;;;;5087636;28;20574;-79
2023/10/08 09:41:03;;;;;;;8.37;2.53;;;25.00;94.40;;;;;;5088710;28;20960;-79
2023/10/08 09:43:34;;;;;;;5.27;2.53;;;25.20;94.20;;;;;;5087664;28;20412;-78
2023/10/08 09:46:15;;;;;;;8.60;3.40;;;25.40;94.10;;;;;;5087938;28;20816;-79
2023/10/08 09:48:44;;;;;;;11.00;2.60;;;25.50;93.60;;;;;;5088890;28;20401;-79
2023/10/08 09:51:12;;;;;;;7.87;2.40;;;25.40;93.60;;;;;;5088425;28;20860;-79
2023/10/08 09:53:46;;;;;;;4.50;2.37;;;25.40;93.80;;;;;;5087372;28;20910;-80
2023/10/08 09:56:17;;;;;;;4.87;2.00;;;25.30;93.60;;;;;;5086968;28;21029;-79
2023/10/08 09:58:45;;;;;;;6.20;2.93;;;25.40;93.50;;;;;;5087329;28;20482;-79
2023/10/08 10:01:11;;;;;;;5.50;2.20;;;25.30;93.90;;;;;;5088309;28;20441;-79
2023/10/08 10:03:37;;;;;;;6.63;2.60;;;25.40;93.90;;;;;;5086560;28;20763;-79
2023/10/08 10:06:09;;;;;;;5.63;2.20;;;25.50;94.00;;;;;;5086404;28;21079;-79
2023/10/08 10:08:35;;;;;;;6.43;2.50;;;25.50;94.00;;;;;;5087503;28;20428;-79
2023/10/08 10:11:01;;;;;;;4.93;2.30;;;25.50;93.90;;;;;;5087549;28;20443;-79
2023/10/08 10:13:29;;;;;;;5.13;2.03;;;25.60;93.70;;;;;;5086943;28;20414;-80
2023/10/08 10:15:54;;;;;;;5.57;2.67;;;25.70;93.60;;;;;;5088164;28;20813;-79
2023/10/08 10:18:28;;;;;;;4.43;2.40;;;25.70;93.60;;;;;;5087090;28;20444;-78
2023/10/08 10:21:03;;;;;;;4.03;2.37;;;25.70;93.60;;;;;;5086429;28;20199;-79
2023/10/08 10:23:36;;;;;;;3.80;2.60;;;25.70;93.60;;;;;;5087414;28;20912;-79
2023/10/08 10:26:02;;;;;;;8.30;2.37;;;25.80;93.60;;;;;;5086334;28;20821;-79
2023/10/08 10:28:29;;;;;;;5.83;2.27;;;25.80;93.70;;;;;;5086863;28;20413;-79
2023/10/08 10:30:55;;;;;;;9.07;3.30;;;25.80;93.70;;;;;;5087535;28;20443;-79
2023/10/08 10:33:22;;;;;;;5.97;2.30;;;25.80;93.60;;;;;;5086581;28;20417;-79
2023/10/08 10:35:54;;;;;;;11.07;2.60;;;25.80;93.60;;;;;;5086151;28;20224;-79
2023/10/08 10:38:22;;;;;;;6.53;3.50;;;25.80;93.60;;;;;;5088054;28;20479;-79
2023/10/08 10:40:56;;;;;;;5.20;2.87;;;25.80;93.80;;;;;;5087840;28;20437;-79
2023/10/08 10:43:32;;;;;;;6.27;2.83;;;25.80;93.90;;;;;;5090262;28;20417;-79
2023/10/08 10:46:30;;;;;;;4.10;2.70;;;25.70;93.80;;;;;;5105895;28;20479;-79
2023/10/08 10:49:07;;;;;;;8.33;2.80;;;25.60;94.00;;;;;;5107942;28;20480;-79
2023/10/08 10:51:34;;;;;;;3.63;2.20;;;25.50;94.00;;;;;;5107472;28;20472;-79
2023/10/08 10:54:07;;;;;;;6.33;2.43;;;25.60;94.20;;;;;;5107875;28;20443;-79
2023/10/08 10:56:44;;;;;;;9.90;2.80;;;25.50;94.20;;;;;;5106342;28;20720;-79
2023/10/08 10:59:18;;;;;;;43.83;17.23;;;25.60;94.40;;;;;;5106344;28;20408;-79
2023/10/08 11:02:05;;;;;;;8.43;3.33;;;25.50;94.70;;;;;;5106373;28;20419;-79
2023/10/08 11:04:31;;;;;;;9.83;3.00;;;25.50;94.20;;;;;;5107634;28;20428;-79
2023/10/08 11:07:00;;;;;;;11.60;2.70;;;25.50;94.40;;;;;;5106414;28;21084;-79
2023/10/08 11:09:36;;;;;;;7.03;2.77;;;25.40;94.40;;;;;;5105929;28;20522;-79
2023/10/08 11:12:10;;;;;;;8.97;3.60;;;25.40;94.40;;;;;;5107515;28;20423;-79
2023/10/08 11:14:41;;;;;;;5.10;2.30;;;25.50;94.30;;;;;;5107043;28;20412;-79
2023/10/08 11:17:16;;;;;;;12.67;2.40;;;25.50;94.30;;;;;;5107425;28;20492;-79
2023/10/08 11:19:45;;;;;;;10.40;2.87;;;25.50;94.40;;;;;;5105660;28;20451;-79
2023/10/08 11:22:18;;;;;;;6.73;2.37;;;25.50;94.30;;;;;;5107016;28;20412;-79
2023/10/08 11:24:47;;;;;;;7.13;2.70;;;25.50;94.20;;;;;;5106770;28;20485;-79
2023/10/08 11:27:15;;;;;;;6.00;2.67;;;25.60;94.20;;;;;;5105765;28;20472;-79
2023/10/08 11:29:53;;;;;;;3.03;2.00;;;25.60;94.10;;;;;;5105265;28;20485;-79
2023/10/08 11:32:25;;;;;;;7.53;2.80;;;25.60;94.10;;;;;;5106931;28;20408;-79
2023/10/08 11:34:59;;;;;;;8.33;2.73;;;25.60;94.20;;;;;;5106574;28;20428;-79
2023/10/08 11:37:28;;;;;;;6.77;3.10;;;25.60;94.30;;;;;;5105790;28;20464;-79
2023/10/08 11:39:58;;;;;;;7.40;2.77;;;25.60;94.20;;;;;;5106543;28;20720;-79
2023/10/08 11:44:59;;;;;;;5.33;2.63;;;25.70;94.40;;;;;;5106543;28;20518;-79
2023/10/08 11:47:31;;;;;;;9.50;2.47;;;25.60;94.20;;;;;;5104902;28;20494;-79
2023/10/08 11:50:19;;;;;;;5.07;3.10;;;25.60;94.30;;;;;;5106328;28;20519;-78
2023/10/08 11:52:43;;;;;;;7.83;2.70;;;25.60;94.30;;;;;;5106299;28;20455;-79
2023/10/08 11:55:10;;;;;;;6.30;3.00;;;25.70;94.30;;;;;;5104653;28;20529;-78
2023/10/08 11:57:38;;;;;;;10.50;2.90;;;25.70;94.30;;;;;;5105433;28;20412;-78
2023/10/08 12:00:18;;;;;;;6.90;2.47;;;25.70;94.40;;;;;;5104860;28;20526;-78
2023/10/08 12:02:48;;;;;;;8.60;3.40;;;25.70;94.60;;;;;;5105220;28;20473;-78
2023/10/08 12:05:20;;;;;;;5.03;2.40;;;25.70;94.70;;;;;;5106014;28;20726;-78
2023/10/08 12:07:57;;;;;;;8.07;2.53;;;25.70;94.50;;;;;;5104178;28;20435;-78
2023/10/08 12:10:23;;;;;;;6.23;2.50;;;25.60;94.30;;;;;;5106279;28;20754;-78
2023/10/08 12:12:52;;;;;;;4.37;2.70;;;25.50;94.40;;;;;;5106478;28;20466;-78
2023/10/08 12:15:26;;;;;;;5.53;2.50;;;25.40;94.50;;;;;;5104679;28;20309;-78
2023/10/08 12:20:38;;;;;;;4.70;2.33;;;25.30;94.50;;;;;;5106703;28;20766;-78
2023/10/08 12:23:05;;;;;;;7.13;2.80;;;25.30;94.70;;;;;;5097381;28;20451;-78
2023/10/08 12:25:34;;;;;;;5.70;2.47;;;25.20;94.60;;;;;;5102508;28;20456;-79
2023/10/08 12:28:04;;;;;;;5.93;3.10;;;25.20;94.60;;;;;;5091332;28;20425;-78
2023/10/08 12:30:41;;;;;;;6.33;2.83;;;25.20;94.90;;;;;;5084579;28;20451;-79
2023/10/08 12:33:12;;;;;;;7.63;2.90;;;25.30;94.90;;;;;;5084327;28;20429;-79
2023/10/08 12:35:53;;;;;;;5.47;2.67;;;25.30;95.00;;;;;;5084638;28;20452;-79
2023/10/08 12:38:22;;;;;;;6.53;2.47;;;25.20;95.00;;;;;;5091591;28;20576;-79
2023/10/08 12:40:52;;;;;;;8.17;3.73;;;25.20;95.50;;;;;;5098057;28;20504;-79
2023/10/08 12:43:19;;;;;;;10.90;3.43;;;25.20;95.10;;;;;;5101524;28;20440;-79
2023/10/08 12:45:52;;;;;;;14.63;3.80;;;25.10;95.20;;;;;;5102926;28;20553;-79
2023/10/08 12:48:22;;;;;;;8.67;2.80;;;25.10;95.10;;;;;;5103615;28;20991;-79
2023/10/08 12:50:56;;;;;;;8.10;3.27;;;25.00;95.30;;;;;;5106839;28;20466;-79
2023/10/08 12:53:37;;;;;;;14.67;3.30;;;25.00;95.40;;;;;;5108460;28;20784;-78
2023/10/08 12:56:14;;;;;;;8.00;3.13;;;25.00;95.60;;;;;;5103232;28;20995;-78
2023/10/08 12:58:41;;;;;;;7.10;3.00;;;25.00;95.60;;;;;;5108420;28;20392;-79
2023/10/08 13:01:14;;;;;;;9.47;3.43;;;25.00;95.70;;;;;;5105775;28;20835;-79
2023/10/08 13:03:49;;;;;;;5.03;2.30;;;25.00;95.90;;;;;;5108546;27;20553;-78
2023/10/08 13:06:28;;;;;;;9.97;2.67;;;25.00;96.00;;;;;;5109299;28;20475;-79
2023/10/08 13:08:55;;;;;;;7.60;2.90;;;25.00;95.80;;;;;;5107013;28;20438;-79
2023/10/08 13:11:24;;;;;;;7.77;2.73;;;24.90;95.60;;;;;;5107598;28;20484;-79
2023/10/08 13:13:57;;;;;;;7.43;2.57;;;24.80;95.40;;;;;;5108814;28;20487;-79
2023/10/08 13:16:25;;;;;;;8.10;2.10;;;24.70;95.40;;;;;;5107726;28;20428;-79
2023/10/08 13:18:52;;;;;;;6.40;3.30;;;24.60;95.50;;;;;;5108117;28;20431;-79
2023/10/08 13:21:19;;;;;;;3.30;2.00;;;24.60;95.40;;;;;;5106511;28;20466;-79
2023/10/08 13:23:46;;;;;;;3.60;1.70;;;24.60;95.30;;;;;;5108200;28;20449;-78
2023/10/08 13:26:16;;;;;;;2.13;1.37;;;24.50;95.20;;;;;;5107511;28;20475;-79
2023/10/08 13:28:44;;;;;;;8.13;1.60;;;24.50;95.20;;;;;;5108747;28;20404;-79
2023/10/08 13:31:10;;;;;;;7.60;2.50;;;24.50;95.20;;;;;;5108578;28;20585;-79
2023/10/08 13:33:42;;;;;;;4.27;1.33;;;24.50;94.90;;;;;;5108116;28;20439;-79
2023/10/08 13:36:09;;;;;;;2.40;1.43;;;24.40;94.80;;;;;;5109349;28;20439;-79
2023/10/08 13:38:36;;;;;;;7.57;1.60;;;24.40;94.50;;;;;;5108159;28;20608;-79
2023/10/08 13:41:20;;;;;;;1.90;1.07;;;24.40;94.80;;;;;;5108948;28;20468;-79
2023/10/08 13:43:47;;;;;;;4.63;1.37;;;24.40;94.40;;;;;;5109426;28;20878;-79
2023/10/08 13:46:17;;;;;;;3.30;1.00;;;24.30;94.00;;;;;;5108880;28;21053;-79
2023/10/08 13:48:50;;;;;;;0.70;0.63;;;24.20;93.80;;;;;;5107760;28;20994;-79
2023/10/08 13:51:20;;;;;;;1.83;0.90;;;24.20;93.70;;;;;;5107600;28;20915;-79
2023/10/08 13:53:59;;;;;;;1.80;1.30;;;24.20;93.90;;;;;;5109335;28;20400;-78
2023/10/08 13:56:30;;;;;;;5.30;1.00;;;24.10;93.90;;;;;;5107682;28;20448;-79
2023/10/08 13:59:12;;;;;;;2.80;1.03;;;24.00;94.10;;;;;;5108744;28;20416;-79
2023/10/08 14:01:42;;;;;;;4.00;0.97;;;24.00;93.80;;;;;;5108974;28;20411;-79
2023/10/08 14:04:09;;;;;;;12.47;0.93;;;23.90;93.60;;;;;;5109178;28;20428;-79
2023/10/08 14:06:58;;;;;;;3.47;0.80;;;23.80;93.50;;;;;;5107375;28;20463;-78